sensor_id;sensor_type;location;lat;lon;timestamp;P1;durP1;ratioP1;P2;durP2;ratioP2
10725;SDS011;5414;59.782;16.378;2023-03-23T00:01:49;16.93;;;4.40;;
10725;SDS011;5414;59.782;16.378;2023-03-23T00:04:16;11.77;;;3.40;;
10725;SDS011;5414;59.782;16.378;2023-03-23T00:06:42;16.50;;;4.07;;
10725;SDS011;5414;59.782;16.378;2023-03-23T00:09:10;13.23;;;3.67;;
10725;SDS011;5414;59.782;16.378;2023-03-23T00:11:36;14.17;;;4.00;;
10725;SDS011;5414;59.782;16.378;2023-03-23T00:14:04;18.47;;;4.50;;
10725;SDS011;5414;59.782;16.378;2023-03-23T00:16:31;14.90;;;4.30;;
10725;SDS011;5414;59.782;16.378;2023-03-23T00:18:58;17.17;;;4.73;;
10725;SDS011;5414;59.782;16.378;2023-03-23T00:21:26;14.67;;;4.10;;
10725;SDS011;5414;59.782;16.378;2023-03-23T00:24:10;18.00;;;4.77;;
10725;SDS011;5414;59.782;16.378;2023-03-23T00:26:37;14.77;;;4.30;;
10725;SDS011;5414;59.782;16.378;2023-03-23T00:29:06;19.40;;;5.00;;
10725;SDS011;5414;59.782;16.378;2023-03-23T00:31:33;20.23;;;4.40;;
10725;SDS011;5414;59.782;16.378;2023-03-23T00:34:00;21.07;;;5.10;;
10725;SDS011;5414;59.782;16.378;2023-03-23T00:36:26;15.20;;;4.00;;
10725;SDS011;5414;59.782;16.378;2023-03-23T00:38:53;14.27;;;4.27;;
10725;SDS011;5414;59.782;16.378;2023-03-23T00:41:41;14.73;;;4.97;;
10725;SDS011;5414;59.782;16.378;2023-03-23T00:44:07;15.60;;;4.50;;
10725;SDS011;5414;59.782;16.378;2023-03-23T00:46:33;18.43;;;4.67;;
10725;SDS011;5414;59.782;16.378;2023-03-23T00:48:59;21.33;;;5.20;;
10725;SDS011;5414;59.782;16.378;2023-03-23T00:51:25;19.37;;;4.63;;
10725;SDS011;5414;59.782;16.378;2023-03-23T00:53:51;18.37;;;4.03;;
10725;SDS011;5414;59.782;16.378;2023-03-23T00:56:17;18.73;;;5.73;;
10725;SDS011;5414;59.782;16.378;2023-03-23T00:58:43;16.83;;;4.60;;
10725;SDS011;5414;59.782;16.378;2023-03-23T01:01:09;21.43;;;4.43;;
10725;SDS011;5414;59.782;16.378;2023-03-23T01:03:35;22.17;;;5.07;;
10725;SDS011;5414;59.782;16.378;2023-03-23T01:06:09;22.40;;;5.07;;
10725;SDS011;5414;59.782;16.378;2023-03-23T01:08:38;20.20;;;4.73;;
10725;SDS011;5414;59.782;16.378;2023-03-23T01:11:10;23.13;;;5.03;;
10725;SDS011;5414;59.782;16.378;2023-03-23T01:13:36;21.07;;;4.87;;
10725;SDS011;5414;59.782;16.378;2023-03-23T01:16:02;21.73;;;5.30;;
10725;SDS011;5414;59.782;16.378;2023-03-23T01:18:28;16.93;;;4.63;;
10725;SDS011;5414;59.782;16.378;2023-03-23T01:20:54;26.77;;;5.77;;
10725;SDS011;5414;59.782;16.378;2023-03-23T01:23:20;22.20;;;4.97;;
10725;SDS011;5414;59.782;16.378;2023-03-23T01:25:47;18.33;;;4.87;;
10725;SDS011;5414;59.782;16.378;2023-03-23T01:28:14;20.73;;;5.43;;
10725;SDS011;5414;59.782;16.378;2023-03-23T01:30:40;19.03;;;4.80;;
10725;SDS011;5414;59.782;16.378;2023-03-23T01:33:06;27.67;;;5.93;;
10725;SDS011;5414;59.782;16.378;2023-03-23T01:35:32;23.70;;;5.23;;
10725;SDS011;5414;59.782;16.378;2023-03-23T01:37:58;22.03;;;5.20;;
10725;SDS011;5414;59.782;16.378;2023-03-23T01:40:26;20.47;;;4.97;;
10725;SDS011;5414;59.782;16.378;2023-03-23T01:42:53;22.17;;;5.77;;
10725;SDS011;5414;59.782;16.378;2023-03-23T01:47:59;20.00;;;5.17;;
10725;SDS011;5414;59.782;16.378;2023-03-23T01:50:26;23.43;;;4.97;;
10725;SDS011;5414;59.782;16.378;2023-03-23T01:52:52;22.00;;;5.20;;
10725;SDS011;5414;59.782;16.378;2023-03-23T01:55:19;19.10;;;5.23;;
10725;SDS011;5414;59.782;16.378;2023-03-23T01:57:45;24.57;;;4.90;;
10725;SDS011;5414;59.782;16.378;2023-03-23T02:00:13;29.93;;;6.33;;
10725;SDS011;5414;59.782;16.378;2023-03-23T02:02:40;18.33;;;4.80;;
10725;SDS011;5414;59.782;16.378;2023-03-23T02:05:08;22.73;;;5.03;;
10725;SDS011;5414;59.782;16.378;2023-03-23T02:07:36;22.80;;;5.33;;
10725;SDS011;5414;59.782;16.378;2023-03-23T02:10:03;25.60;;;6.00;;
10725;SDS011;5414;59.782;16.378;2023-03-23T02:12:29;19.70;;;4.90;;
10725;SDS011;5414;59.782;16.378;2023-03-23T02:14:55;24.23;;;5.17;;
10725;SDS011;5414;59.782;16.378;2023-03-23T02:35:56;21.33;;;5.50;;
10725;SDS011;5414;59.782;16.378;2023-03-23T02:38:21;24.33;;;5.57;;
10725;SDS011;5414;59.782;16.378;2023-03-23T02:40:48;26.17;;;5.33;;
10725;SDS011;5414;59.782;16.378;2023-03-23T02:43:18;25.70;;;6.00;;
10725;SDS011;5414;59.782;16.378;2023-03-23T02:45:45;23.10;;;5.60;;
10725;SDS011;5414;59.782;16.378;2023-03-23T02:48:13;27.23;;;5.47;;
10725;SDS011;5414;59.782;16.378;2023-03-23T02:50:40;21.23;;;5.50;;
10725;SDS011;5414;59.782;16.378;2023-03-23T02:53:08;23.10;;;5.40;;
10725;SDS011;5414;59.782;16.378;2023-03-23T02:55:36;22.17;;;5.23;;
10725;SDS011;5414;59.782;16.378;2023-03-23T02:58:07;25.40;;;6.40;;
10725;SDS011;5414;59.782;16.378;2023-03-23T03:00:33;27.47;;;6.03;;
10725;SDS011;5414;59.782;16.378;2023-03-23T03:02:59;22.03;;;5.50;;
10725;SDS011;5414;59.782;16.378;2023-03-23T03:12:46;22.17;;;5.50;;
10725;SDS011;5414;59.782;16.378;2023-03-23T03:15:17;26.30;;;5.97;;
10725;SDS011;5414;59.782;16.378;2023-03-23T03:17:48;23.90;;;5.70;;
10725;SDS011;5414;59.782;16.378;2023-03-23T03:20:16;25.13;;;5.60;;
10725;SDS011;5414;59.782;16.378;2023-03-23T03:22:44;28.07;;;5.53;;
10725;SDS011;5414;59.782;16.378;2023-03-23T03:25:11;26.87;;;6.03;;
10725;SDS011;5414;59.782;16.378;2023-03-23T03:27:38;32.13;;;6.20;;
10725;SDS011;5414;59.782;16.378;2023-03-23T03:30:06;25.87;;;5.53;;
10725;SDS011;5414;59.782;16.378;2023-03-23T03:32:36;27.03;;;6.40;;
10725;SDS011;5414;59.782;16.378;2023-03-23T03:35:04;27.67;;;6.50;;
10725;SDS011;5414;59.782;16.378;2023-03-23T03:37:34;28.20;;;5.67;;
10725;SDS011;5414;59.782;16.378;2023-03-23T03:40:03;31.17;;;6.47;;
10725;SDS011;5414;59.782;16.378;2023-03-23T03:42:35;21.60;;;5.93;;
10725;SDS011;5414;59.782;16.378;2023-03-23T03:45:01;26.77;;;6.27;;
10725;SDS011;5414;59.782;16.378;2023-03-23T03:47:27;26.80;;;5.37;;
10725;SDS011;5414;59.782;16.378;2023-03-23T03:49:53;23.40;;;5.60;;
10725;SDS011;5414;59.782;16.378;2023-03-23T03:52:19;26.50;;;6.03;;
10725;SDS011;5414;59.782;16.378;2023-03-23T03:54:45;26.83;;;6.17;;
10725;SDS011;5414;59.782;16.378;2023-03-23T03:57:12;24.40;;;5.27;;
10725;SDS011;5414;59.782;16.378;2023-03-23T03:59:38;23.37;;;6.53;;
10725;SDS011;5414;59.782;16.378;2023-03-23T04:02:05;25.00;;;6.17;;
10725;SDS011;5414;59.782;16.378;2023-03-23T04:04:31;23.50;;;5.83;;
10725;SDS011;5414;59.782;16.378;2023-03-23T04:06:57;25.67;;;5.70;;
10725;SDS011;5414;59.782;16.378;2023-03-23T04:09:23;30.17;;;5.90;;
10725;SDS011;5414;59.782;16.378;2023-03-23T04:11:52;26.43;;;6.20;;
10725;SDS011;5414;59.782;16.378;2023-03-23T04:14:18;25.03;;;5.87;;
10725;SDS011;5414;59.782;16.378;2023-03-23T04:16:44;25.97;;;5.70;;
10725;SDS011;5414;59.782;16.378;2023-03-23T04:19:10;27.27;;;5.73;;
10725;SDS011;5414;59.782;16.378;2023-03-23T04:21:37;26.70;;;5.67;;
10725;SDS011;5414;59.782;16.378;2023-03-23T04:24:03;24.60;;;5.63;;
10725;SDS011;5414;59.782;16.378;2023-03-23T04:26:29;26.60;;;5.90;;
10725;SDS011;5414;59.782;16.378;2023-03-23T04:28:55;26.50;;;5.47;;
10725;SDS011;5414;59.782;16.378;2023-03-23T04:31:23;19.67;;;6.03;;
10725;SDS011;5414;59.782;16.378;2023-03-23T04:33:50;23.20;;;5.73;;
10725;SDS011;5414;59.782;16.378;2023-03-23T04:36:19;25.27;;;5.43;;
10725;SDS011;5414;59.782;16.378;2023-03-23T04:38:47;23.77;;;6.40;;
10725;SDS011;5414;59.782;16.378;2023-03-23T04:41:15;23.13;;;6.30;;
10725;SDS011;5414;59.782;16.378;2023-03-23T04:43:41;26.97;;;6.53;;
10725;SDS011;5414;59.782;16.378;2023-03-23T04:46:07;22.97;;;5.90;;
10725;SDS011;5414;59.782;16.378;2023-03-23T04:48:34;24.87;;;5.57;;
10725;SDS011;5414;59.782;16.378;2023-03-23T04:51:01;26.07;;;5.33;;
10725;SDS011;5414;59.782;16.378;2023-03-23T04:53:31;23.00;;;5.83;;
10725;SDS011;5414;59.782;16.378;2023-03-23T04:55:57;21.27;;;5.87;;
10725;SDS011;5414;59.782;16.378;2023-03-23T04:58:23;25.13;;;6.00;;
10725;SDS011;5414;59.782;16.378;2023-03-23T05:00:50;27.87;;;6.63;;
10725;SDS011;5414;59.782;16.378;2023-03-23T05:03:16;26.83;;;5.90;;
10725;SDS011;5414;59.782;16.378;2023-03-23T05:05:43;22.97;;;5.57;;
10725;SDS011;5414;59.782;16.378;2023-03-23T05:08:12;25.13;;;6.53;;
10725;SDS011;5414;59.782;16.378;2023-03-23T05:10:38;24.00;;;5.90;;
10725;SDS011;5414;59.782;16.378;2023-03-23T05:13:04;22.40;;;5.47;;
10725;SDS011;5414;59.782;16.378;2023-03-23T05:15:31;26.87;;;6.57;;
10725;SDS011;5414;59.782;16.378;2023-03-23T05:17:57;23.23;;;5.70;;
10725;SDS011;5414;59.782;16.378;2023-03-23T05:20:23;17.43;;;5.63;;
10725;SDS011;5414;59.782;16.378;2023-03-23T05:22:50;22.33;;;5.80;;
10725;SDS011;5414;59.782;16.378;2023-03-23T05:25:16;24.53;;;5.63;;
10725;SDS011;5414;59.782;16.378;2023-03-23T05:27:46;21.53;;;6.60;;
10725;SDS011;5414;59.782;16.378;2023-03-23T05:30:18;22.70;;;5.60;;
10725;SDS011;5414;59.782;16.378;2023-03-23T05:32:44;23.20;;;5.60;;
10725;SDS011;5414;59.782;16.378;2023-03-23T05:35:15;24.00;;;6.03;;
10725;SDS011;5414;59.782;16.378;2023-03-23T05:37:41;28.07;;;6.03;;
10725;SDS011;5414;59.782;16.378;2023-03-23T05:40:07;21.40;;;5.83;;
10725;SDS011;5414;59.782;16.378;2023-03-23T05:42:34;19.90;;;5.37;;
10725;SDS011;5414;59.782;16.378;2023-03-23T05:45:01;20.53;;;5.83;;
10725;SDS011;5414;59.782;16.378;2023-03-23T05:47:27;17.77;;;5.30;;
10725;SDS011;5414;59.782;16.378;2023-03-23T05:49:53;24.00;;;6.20;;
10725;SDS011;5414;59.782;16.378;2023-03-23T05:52:19;21.80;;;6.67;;
10725;SDS011;5414;59.782;16.378;2023-03-23T05:54:46;21.57;;;5.60;;
10725;SDS011;5414;59.782;16.378;2023-03-23T05:57:12;18.50;;;5.30;;
10725;SDS011;5414;59.782;16.378;2023-03-23T05:59:38;22.17;;;5.33;;
10725;SDS011;5414;59.782;16.378;2023-03-23T06:02:04;17.07;;;4.97;;
10725;SDS011;5414;59.782;16.378;2023-03-23T06:04:30;22.40;;;5.33;;
10725;SDS011;5414;59.782;16.378;2023-03-23T06:06:59;17.77;;;5.00;;
10725;SDS011;5414;59.782;16.378;2023-03-23T06:09:25;20.93;;;5.33;;
10725;SDS011;5414;59.782;16.378;2023-03-23T06:11:51;20.30;;;5.00;;
10725;SDS011;5414;59.782;16.378;2023-03-23T06:14:17;19.00;;;5.57;;
10725;SDS011;5414;59.782;16.378;2023-03-23T06:16:43;23.90;;;5.43;;
10725;SDS011;5414;59.782;16.378;2023-03-23T06:19:09;17.00;;;5.40;;
10725;SDS011;5414;59.782;16.378;2023-03-23T06:21:36;25.47;;;5.40;;
10725;SDS011;5414;59.782;16.378;2023-03-23T06:24:02;19.93;;;5.63;;
10725;SDS011;5414;59.782;16.378;2023-03-23T06:26:32;18.83;;;4.80;;
10725;SDS011;5414;59.782;16.378;2023-03-23T06:29:00;19.70;;;4.90;;
10725;SDS011;5414;59.782;16.378;2023-03-23T06:31:26;17.13;;;5.30;;
10725;SDS011;5414;59.782;16.378;2023-03-23T06:33:52;20.77;;;5.10;;
10725;SDS011;5414;59.782;16.378;2023-03-23T06:36:18;20.47;;;4.90;;
10725;SDS011;5414;59.782;16.378;2023-03-23T06:38:45;17.07;;;4.77;;
10725;SDS011;5414;59.782;16.378;2023-03-23T06:41:11;16.23;;;4.83;;
10725;SDS011;5414;59.782;16.378;2023-03-23T06:43:37;16.50;;;4.67;;
10725;SDS011;5414;59.782;16.378;2023-03-23T06:46:05;19.73;;;5.37;;
10725;SDS011;5414;59.782;16.378;2023-03-23T06:48:31;21.30;;;5.67;;
10725;SDS011;5414;59.782;16.378;2023-03-23T06:50:57;17.27;;;5.03;;
10725;SDS011;5414;59.782;16.378;2023-03-23T06:53:23;20.37;;;5.67;;
10725;SDS011;5414;59.782;16.378;2023-03-23T06:55:49;15.53;;;5.10;;
10725;SDS011;5414;59.782;16.378;2023-03-23T06:58:16;14.57;;;4.80;;
10725;SDS011;5414;59.782;16.378;2023-03-23T07:00:42;18.40;;;5.27;;
10725;SDS011;5414;59.782;16.378;2023-03-23T07:03:09;19.20;;;5.13;;
10725;SDS011;5414;59.782;16.378;2023-03-23T07:05:35;14.77;;;4.70;;
10725;SDS011;5414;59.782;16.378;2023-03-23T07:08:04;18.30;;;5.33;;
10725;SDS011;5414;59.782;16.378;2023-03-23T07:10:30;16.03;;;5.67;;
10725;SDS011;5414;59.782;16.378;2023-03-23T07:12:57;17.07;;;4.90;;
10725;SDS011;5414;59.782;16.378;2023-03-23T07:15:24;15.47;;;5.23;;
10725;SDS011;5414;59.782;16.378;2023-03-23T07:17:50;20.77;;;5.17;;
10725;SDS011;5414;59.782;16.378;2023-03-23T07:20:16;14.87;;;4.73;;
10725;SDS011;5414;59.782;16.378;2023-03-23T07:22:42;21.70;;;5.57;;
10725;SDS011;5414;59.782;16.378;2023-03-23T07:25:08;20.67;;;5.27;;
10725;SDS011;5414;59.782;16.378;2023-03-23T07:27:35;19.77;;;5.00;;
10725;SDS011;5414;59.782;16.378;2023-03-23T07:30:02;15.40;;;5.07;;
10725;SDS011;5414;59.782;16.378;2023-03-23T07:32:28;17.10;;;5.50;;
10725;SDS011;5414;59.782;16.378;2023-03-23T07:34:54;15.73;;;5.63;;
10725;SDS011;5414;59.782;16.378;2023-03-23T07:37:21;14.13;;;5.00;;
10725;SDS011;5414;59.782;16.378;2023-03-23T07:39:48;16.13;;;4.93;;
10725;SDS011;5414;59.782;16.378;2023-03-23T07:42:14;19.53;;;6.07;;
10725;SDS011;5414;59.782;16.378;2023-03-23T07:44:40;14.03;;;5.60;;
10725;SDS011;5414;59.782;16.378;2023-03-23T07:47:06;16.20;;;5.30;;
10725;SDS011;5414;59.782;16.378;2023-03-23T07:49:32;17.50;;;5.07;;
10725;SDS011;5414;59.782;16.378;2023-03-23T07:51:58;15.10;;;5.47;;
10725;SDS011;5414;59.782;16.378;2023-03-23T07:54:26;12.60;;;4.93;;
10725;SDS011;5414;59.782;16.378;2023-03-23T07:56:52;13.53;;;4.57;;
10725;SDS011;5414;59.782;16.378;2023-03-23T07:59:18;14.30;;;5.37;;
10725;SDS011;5414;59.782;16.378;2023-03-23T08:01:45;18.07;;;5.17;;
10725;SDS011;5414;59.782;16.378;2023-03-23T08:04:11;12.20;;;4.17;;
10725;SDS011;5414;59.782;16.378;2023-03-23T08:06:38;14.30;;;4.77;;
10725;SDS011;5414;59.782;16.378;2023-03-23T08:09:05;13.00;;;4.87;;
10725;SDS011;5414;59.782;16.378;2023-03-23T08:11:34;18.20;;;4.93;;
10725;SDS011;5414;59.782;16.378;2023-03-23T08:14:00;14.80;;;4.80;;
10725;SDS011;5414;59.782;16.378;2023-03-23T08:16:28;16.03;;;4.93;;
10725;SDS011;5414;59.782;16.378;2023-03-23T08:18:54;17.30;;;5.40;;
10725;SDS011;5414;59.782;16.378;2023-03-23T08:21:20;12.93;;;4.63;;
10725;SDS011;5414;59.782;16.378;2023-03-23T08:23:47;13.63;;;4.60;;
10725;SDS011;5414;59.782;16.378;2023-03-23T08:26:13;15.70;;;4.33;;
10725;SDS011;5414;59.782;16.378;2023-03-23T08:28:40;18.47;;;4.80;;
10725;SDS011;5414;59.782;16.378;2023-03-23T08:31:09;14.47;;;4.40;;
10725;SDS011;5414;59.782;16.378;2023-03-23T08:33:35;13.40;;;4.57;;
10725;SDS011;5414;59.782;16.378;2023-03-23T08:36:01;12.53;;;4.60;;
10725;SDS011;5414;59.782;16.378;2023-03-23T08:38:28;13.63;;;4.47;;
10725;SDS011;5414;59.782;16.378;2023-03-23T08:41:01;13.90;;;4.23;;
10725;SDS011;5414;59.782;16.378;2023-03-23T08:43:28;16.53;;;5.37;;
10725;SDS011;5414;59.782;16.378;2023-03-23T08:45:55;11.27;;;4.30;;
10725;SDS011;5414;59.782;16.378;2023-03-23T08:48:21;13.07;;;4.00;;
10725;SDS011;5414;59.782;16.378;2023-03-23T08:50:48;13.10;;;4.30;;
10725;SDS011;5414;59.782;16.378;2023-03-23T08:53:14;14.30;;;4.53;;
10725;SDS011;5414;59.782;16.378;2023-03-23T08:55:41;11.77;;;3.93;;
10725;SDS011;5414;59.782;16.378;2023-03-23T08:58:07;16.93;;;4.60;;
10725;SDS011;5414;59.782;16.378;2023-03-23T09:00:34;12.73;;;4.17;;
10725;SDS011;5414;59.782;16.378;2023-03-23T09:03:00;12.77;;;4.43;;
10725;SDS011;5414;59.782;16.378;2023-03-23T09:05:27;11.50;;;4.37;;
10725;SDS011;5414;59.782;16.378;2023-03-23T09:07:54;9.57;;;3.67;;
10725;SDS011;5414;59.782;16.378;2023-03-23T09:10:23;10.73;;;3.80;;
10725;SDS011;5414;59.782;16.378;2023-03-23T09:12:51;10.93;;;4.20;;
10725;SDS011;5414;59.782;16.378;2023-03-23T09:15:17;10.07;;;3.97;;
10725;SDS011;5414;59.782;16.378;2023-03-23T09:17:44;14.83;;;3.53;;
10725;SDS011;5414;59.782;16.378;2023-03-23T09:20:12;9.83;;;3.70;;
10725;SDS011;5414;59.782;16.378;2023-03-23T09:22:42;11.00;;;3.40;;
10725;SDS011;5414;59.782;16.378;2023-03-23T09:25:09;12.53;;;3.70;;
10725;SDS011;5414;59.782;16.378;2023-03-23T09:27:35;11.93;;;4.20;;
10725;SDS011;5414;59.782;16.378;2023-03-23T09:30:05;9.67;;;3.80;;
10725;SDS011;5414;59.782;16.378;2023-03-23T09:32:32;9.37;;;3.53;;
10725;SDS011;5414;59.782;16.378;2023-03-23T09:35:00;13.43;;;4.40;;
10725;SDS011;5414;59.782;16.378;2023-03-23T09:37:26;11.40;;;4.10;;
10725;SDS011;5414;59.782;16.378;2023-03-23T09:39:52;12.47;;;4.30;;
10725;SDS011;5414;59.782;16.378;2023-03-23T09:45:09;13.13;;;3.73;;
10725;SDS011;5414;59.782;16.378;2023-03-23T09:47:52;10.00;;;3.63;;
10725;SDS011;5414;59.782;16.378;2023-03-23T09:50:21;11.30;;;3.67;;
10725;SDS011;5414;59.782;16.378;2023-03-23T09:55:18;12.60;;;4.17;;
10725;SDS011;5414;59.782;16.378;2023-03-23T09:58:20;10.60;;;3.87;;
10725;SDS011;5414;59.782;16.378;2023-03-23T10:00:41;13.60;;;4.37;;
10725;SDS011;5414;59.782;16.378;2023-03-23T10:03:15;12.77;;;4.10;;
10725;SDS011;5414;59.782;16.378;2023-03-23T10:05:42;10.37;;;3.93;;
10725;SDS011;5414;59.782;16.378;2023-03-23T10:08:14;14.47;;;4.10;;
10725;SDS011;5414;59.782;16.378;2023-03-23T10:13:28;11.27;;;3.87;;
10725;SDS011;5414;59.782;16.378;2023-03-23T10:15:58;12.20;;;4.03;;
10725;SDS011;5414;59.782;16.378;2023-03-23T10:18:58;9.10;;;3.73;;
10725;SDS011;5414;59.782;16.378;2023-03-23T10:21:19;12.17;;;3.87;;
10725;SDS011;5414;59.782;16.378;2023-03-23T10:26:20;11.20;;;3.93;;
10725;SDS011;5414;59.782;16.378;2023-03-23T10:28:51;15.87;;;4.27;;
10725;SDS011;5414;59.782;16.378;2023-03-23T10:31:40;9.87;;;3.97;;
10725;SDS011;5414;59.782;16.378;2023-03-23T10:34:07;11.97;;;4.17;;
10725;SDS011;5414;59.782;16.378;2023-03-23T10:36:37;12.70;;;3.50;;
10725;SDS011;5414;59.782;16.378;2023-03-23T10:39:13;11.63;;;3.60;;
10725;SDS011;5414;59.782;16.378;2023-03-23T10:41:42;13.43;;;3.77;;
10725;SDS011;5414;59.782;16.378;2023-03-23T10:44:09;10.73;;;3.20;;
10725;SDS011;5414;59.782;16.378;2023-03-23T10:49:07;9.50;;;3.53;;
10725;SDS011;5414;59.782;16.378;2023-03-23T10:51:37;12.53;;;3.90;;
10725;SDS011;5414;59.782;16.378;2023-03-23T10:54:05;11.83;;;3.67;;
10725;SDS011;5414;59.782;16.378;2023-03-23T10:56:37;13.30;;;4.00;;
10725;SDS011;5414;59.782;16.378;2023-03-23T11:01:50;9.50;;;3.57;;
10725;SDS011;5414;59.782;16.378;2023-03-23T11:04:16;13.20;;;3.57;;
10725;SDS011;5414;59.782;16.378;2023-03-23T11:06:45;13.60;;;4.03;;
10725;SDS011;5414;59.782;16.378;2023-03-23T11:09:18;10.70;;;3.43;;
10725;SDS011;5414;59.782;16.378;2023-03-23T11:11:52;11.53;;;3.73;;
10725;SDS011;5414;59.782;16.378;2023-03-23T11:14:19;12.30;;;3.40;;
10725;SDS011;5414;59.782;16.378;2023-03-23T11:16:50;10.03;;;3.90;;
10725;SDS011;5414;59.782;16.378;2023-03-23T11:19:38;12.60;;;3.97;;
10725;SDS011;5414;59.782;16.378;2023-03-23T11:24:34;11.30;;;3.37;;
10725;SDS011;5414;59.782;16.378;2023-03-23T11:27:01;12.47;;;3.87;;
10725;SDS011;5414;59.782;16.378;2023-03-23T11:29:32;10.83;;;3.40;;
10725;SDS011;5414;59.782;16.378;2023-03-23T11:35:26;9.50;;;3.27;;
10725;SDS011;5414;59.782;16.378;2023-03-23T11:39:53;11.17;;;3.43;;
10725;SDS011;5414;59.782;16.378;2023-03-23T11:42:21;11.70;;;3.67;;
10725;SDS011;5414;59.782;16.378;2023-03-23T11:44:48;9.57;;;3.43;;
10725;SDS011;5414;59.782;16.378;2023-03-23T11:52:27;12.10;;;3.57;;
10725;SDS011;5414;59.782;16.378;2023-03-23T11:55:00;11.03;;;3.67;;
10725;SDS011;5414;59.782;16.378;2023-03-23T11:57:30;7.23;;;3.23;;
10725;SDS011;5414;59.782;16.378;2023-03-23T11:59:56;9.53;;;3.70;;
10725;SDS011;5414;59.782;16.378;2023-03-23T12:20:38;9.97;;;3.27;;
10725;SDS011;5414;59.782;16.378;2023-03-23T12:25:39;8.63;;;3.13;;
10725;SDS011;5414;59.782;16.378;2023-03-23T12:30:52;9.50;;;3.03;;
10725;SDS011;5414;59.782;16.378;2023-03-23T12:33:34;7.03;;;2.63;;
10725;SDS011;5414;59.782;16.378;2023-03-23T12:38:37;9.63;;;3.10;;
10725;SDS011;5414;59.782;16.378;2023-03-23T12:43:53;10.00;;;3.03;;
10725;SDS011;5414;59.782;16.378;2023-03-23T12:47:10;7.93;;;2.93;;
10725;SDS011;5414;59.782;16.378;2023-03-23T12:49:29;9.07;;;2.77;;
10725;SDS011;5414;59.782;16.378;2023-03-23T12:52:19;12.63;;;2.80;;
10725;SDS011;5414;59.782;16.378;2023-03-23T12:54:45;9.13;;;2.80;;
10725;SDS011;5414;59.782;16.378;2023-03-23T12:57:31;7.47;;;2.70;;
10725;SDS011;5414;59.782;16.378;2023-03-23T13:00:05;10.00;;;2.70;;
10725;SDS011;5414;59.782;16.378;2023-03-23T13:02:41;6.83;;;2.57;;
10725;SDS011;5414;59.782;16.378;2023-03-23T13:08:00;7.10;;;2.40;;
10725;SDS011;5414;59.782;16.378;2023-03-23T13:10:28;7.40;;;2.90;;
10725;SDS011;5414;59.782;16.378;2023-03-23T13:12:55;6.37;;;2.60;;
10725;SDS011;5414;59.782;16.378;2023-03-23T13:22:47;6.60;;;2.37;;
10725;SDS011;5414;59.782;16.378;2023-03-23T13:25:18;6.23;;;2.60;;
10725;SDS011;5414;59.782;16.378;2023-03-23T13:27:55;7.23;;;2.60;;
10725;SDS011;5414;59.782;16.378;2023-03-23T13:30:22;8.63;;;2.50;;
10725;SDS011;5414;59.782;16.378;2023-03-23T13:32:49;7.00;;;2.50;;
10725;SDS011;5414;59.782;16.378;2023-03-23T13:35:16;9.37;;;3.10;;
10725;SDS011;5414;59.782;16.378;2023-03-23T13:37:47;8.47;;;2.80;;
10725;SDS011;5414;59.782;16.378;2023-03-23T13:40:28;9.27;;;2.90;;
10725;SDS011;5414;59.782;16.378;2023-03-23T13:42:55;8.53;;;2.53;;
10725;SDS011;5414;59.782;16.378;2023-03-23T13:50:30;8.37;;;2.70;;
10725;SDS011;5414;59.782;16.378;2023-03-23T13:52:58;6.70;;;2.50;;
10725;SDS011;5414;59.782;16.378;2023-03-23T13:57:55;8.50;;;2.80;;
10725;SDS011;5414;59.782;16.378;2023-03-23T14:02:48;8.13;;;2.90;;
10725;SDS011;5414;59.782;16.378;2023-03-23T14:07:54;19.70;;;17.67;;
10725;SDS011;5414;59.782;16.378;2023-03-23T14:10:21;12.70;;;5.87;;
10725;SDS011;5414;59.782;16.378;2023-03-23T14:12:49;8.87;;;2.63;;
10725;SDS011;5414;59.782;16.378;2023-03-23T14:15:16;8.10;;;2.47;;
10725;SDS011;5414;59.782;16.378;2023-03-23T14:17:43;8.57;;;2.97;;
10725;SDS011;5414;59.782;16.378;2023-03-23T14:20:23;6.50;;;2.37;;
10725;SDS011;5414;59.782;16.378;2023-03-23T14:22:54;8.23;;;3.50;;
10725;SDS011;5414;59.782;16.378;2023-03-23T14:25:21;6.97;;;2.70;;
10725;SDS011;5414;59.782;16.378;2023-03-23T14:27:50;11.67;;;3.53;;
10725;SDS011;5414;59.782;16.378;2023-03-23T14:30:21;7.23;;;2.47;;
10725;SDS011;5414;59.782;16.378;2023-03-23T14:32:47;7.00;;;2.47;;
10725;SDS011;5414;59.782;16.378;2023-03-23T14:35:18;6.73;;;2.50;;
10725;SDS011;5414;59.782;16.378;2023-03-23T14:37:45;11.77;;;4.73;;
10725;SDS011;5414;59.782;16.378;2023-03-23T14:40:13;8.50;;;3.13;;
10725;SDS011;5414;59.782;16.378;2023-03-23T14:42:40;8.23;;;2.73;;
10725;SDS011;5414;59.782;16.378;2023-03-23T14:45:07;7.33;;;3.50;;
10725;SDS011;5414;59.782;16.378;2023-03-23T14:47:38;8.23;;;2.77;;
10725;SDS011;5414;59.782;16.378;2023-03-23T14:50:06;8.00;;;2.30;;
10725;SDS011;5414;59.782;16.378;2023-03-23T14:52:34;5.13;;;2.20;;
10725;SDS011;5414;59.782;16.378;2023-03-23T14:55:34;8.77;;;2.87;;
10725;SDS011;5414;59.782;16.378;2023-03-23T14:57:55;6.60;;;2.30;;
10725;SDS011;5414;59.782;16.378;2023-03-23T15:00:33;5.97;;;2.20;;
10725;SDS011;5414;59.782;16.378;2023-03-23T15:03:00;9.10;;;2.70;;
10725;SDS011;5414;59.782;16.378;2023-03-23T15:05:46;7.20;;;2.30;;
10725;SDS011;5414;59.782;16.378;2023-03-23T15:08:21;5.63;;;2.17;;
10725;SDS011;5414;59.782;16.378;2023-03-23T15:10:55;7.17;;;2.47;;
10725;SDS011;5414;59.782;16.378;2023-03-23T15:13:22;5.57;;;2.40;;
10725;SDS011;5414;59.782;16.378;2023-03-23T15:15:48;4.07;;;1.93;;
10725;SDS011;5414;59.782;16.378;2023-03-23T15:18:22;6.90;;;2.07;;
10725;SDS011;5414;59.782;16.378;2023-03-23T15:20:51;8.87;;;2.60;;
10725;SDS011;5414;59.782;16.378;2023-03-23T15:23:22;6.03;;;2.30;;
10725;SDS011;5414;59.782;16.378;2023-03-23T15:25:52;7.40;;;2.30;;
10725;SDS011;5414;59.782;16.378;2023-03-23T15:30:51;5.93;;;2.37;;
10725;SDS011;5414;59.782;16.378;2023-03-23T15:33:18;8.83;;;3.03;;
10725;SDS011;5414;59.782;16.378;2023-03-23T15:35:51;7.30;;;2.37;;
10725;SDS011;5414;59.782;16.378;2023-03-23T15:38:21;4.90;;;2.23;;
10725;SDS011;5414;59.782;16.378;2023-03-23T15:40:49;4.57;;;2.23;;
10725;SDS011;5414;59.782;16.378;2023-03-23T15:48:47;5.93;;;2.17;;
10725;SDS011;5414;59.782;16.378;2023-03-23T15:51:13;8.13;;;2.40;;
10725;SDS011;5414;59.782;16.378;2023-03-23T15:53:40;5.50;;;1.97;;
10725;SDS011;5414;59.782;16.378;2023-03-23T15:56:07;5.87;;;2.00;;
10725;SDS011;5414;59.782;16.378;2023-03-23T15:58:35;5.27;;;2.53;;
10725;SDS011;5414;59.782;16.378;2023-03-23T16:01:04;8.53;;;2.23;;
10725;SDS011;5414;59.782;16.378;2023-03-23T16:03:39;5.13;;;2.00;;
10725;SDS011;5414;59.782;16.378;2023-03-23T16:06:10;9.17;;;2.37;;
10725;SDS011;5414;59.782;16.378;2023-03-23T16:08:37;5.83;;;2.63;;
10725;SDS011;5414;59.782;16.378;2023-03-23T16:11:05;6.73;;;2.40;;
10725;SDS011;5414;59.782;16.378;2023-03-23T16:13:32;4.53;;;2.30;;
10725;SDS011;5414;59.782;16.378;2023-03-23T16:15:59;5.03;;;1.90;;
10725;SDS011;5414;59.782;16.378;2023-03-23T16:18:26;6.17;;;2.10;;
10725;SDS011;5414;59.782;16.378;2023-03-23T16:20:53;5.73;;;2.23;;
10725;SDS011;5414;59.782;16.378;2023-03-23T16:23:19;6.80;;;2.30;;
10725;SDS011;5414;59.782;16.378;2023-03-23T16:25:45;7.37;;;2.30;;
10725;SDS011;5414;59.782;16.378;2023-03-23T16:28:11;6.13;;;2.23;;
10725;SDS011;5414;59.782;16.378;2023-03-23T16:30:38;5.57;;;2.40;;
10725;SDS011;5414;59.782;16.378;2023-03-23T16:33:04;12.83;;;3.67;;
10725;SDS011;5414;59.782;16.378;2023-03-23T16:35:30;12.60;;;3.20;;
10725;SDS011;5414;59.782;16.378;2023-03-23T16:37:57;8.60;;;3.10;;
10725;SDS011;5414;59.782;16.378;2023-03-23T16:40:23;10.97;;;3.33;;
10725;SDS011;5414;59.782;16.378;2023-03-23T16:42:49;6.63;;;2.27;;